Time;durP1;ratioP1;P1;durP2;ratioP2;P2;SDS_P1;SDS_P2;PMS_P1;PMS_P2;Temp;Humidity;BMP_temperature;BMP_pressure;BME280_temperature;BME280_humidity;BME280_pressure;Samples;Min_cycle;Max_cycle;Signal;HPM_P1;HPM_P2
2023/10/08 00:00:55;;;;;;;8.70;3.70;;;;;;;10.95;85.79;100125.06;109161;275;38258;-69
2023/10/08 00:03:58;;;;;;;12.20;4.00;;;;;;;10.94;85.90;100116.20;109146;275;38522;-69
2023/10/08 00:06:34;;;;;;;7.90;3.80;;;;;;;10.93;86.03;100112.27;109077;275;38428;-69
2023/10/08 00:09:09;;;;;;;11.40;4.10;;;;;;;10.94;86.19;100115.34;109130;275;38580;-69
2023/10/08 00:11:55;;;;;;;7.30;3.60;;;;;;;10.96;86.21;100111.24;109155;275;39399;-68
2023/10/08 00:14:43;;;;;;;9.30;3.90;;;;;;;10.97;86.54;100110.31;109103;275;38454;-68
2023/10/08 00:17:25;;;;;;;9.90;3.90;;;;;;;10.98;86.65;100110.13;109096;275;38770;-69
2023/10/08 00:20:03;;;;;;;8.10;3.50;;;;;;;10.97;86.46;100111.70;109113;275;38754;-69
2023/10/08 00:22:43;;;;;;;6.70;3.80;;;;;;;10.96;86.51;100106.17;109139;275;38237;-68
2023/10/08 00:25:20;;;;;;;7.20;3.70;;;;;;;10.98;86.86;100100.83;109094;275;38261;-68
2023/10/08 00:28:01;;;;;;;9.10;3.90;;;;;;;10.98;86.74;100092.12;109013;275;38158;-68
2023/10/08 00:30:44;;;;;;;8.30;3.50;;;;;;;10.98;86.83;100096.32;109169;275;39323;-68
2023/10/08 00:33:20;;;;;;;7.60;3.40;;;;;;;10.97;86.76;100098.80;109110;275;39635;-67
2023/10/08 00:36:17;;;;;;;8.90;4.00;;;;;;;10.96;86.85;100105.98;109178;275;38295;-68
2023/10/08 00:38:59;;;;;;;9.70;3.80;;;;;;;10.95;86.87;100115.49;109020;275;175373;-68
2023/10/08 00:41:38;;;;;;;8.20;3.80;;;;;;;10.93;87.00;100109.27;109122;275;39509;-68
2023/10/08 00:44:29;;;;;;;5.90;3.70;;;;;;;10.92;87.16;100110.21;109129;275;38476;-68
2023/10/08 00:47:07;;;;;;;6.80;3.80;;;;;;;10.93;87.34;100109.98;109135;275;39389;-70
2023/10/08 00:50:02;;;;;;;10.40;4.10;;;;;;;10.92;87.21;100092.41;109107;275;38877;-69
2023/10/08 00:52:45;;;;;;;8.30;3.70;;;;;;;10.92;87.37;100086.63;109102;275;39671;-67
2023/10/08 00:55:29;;;;;;;7.40;3.70;;;;;;;10.94;87.39;100083.41;109106;275;38547;-67
2023/10/08 00:58:11;;;;;;;10.50;4.80;;;;;;;10.95;87.44;100081.27;109095;275;38722;-68
2023/10/08 01:00:51;;;;;;;9.50;4.50;;;;;;;10.92;87.41;100094.69;108973;275;173578;-69
2023/10/08 01:03:36;;;;;;;7.20;5.10;;;;;;;10.88;87.43;100102.02;109091;275;38243;-68
2023/10/08 01:06:19;;;;;;;9.50;4.20;;;;;;;10.85;87.45;100107.33;109035;275;175363;-67
2023/10/08 01:09:07;;;;;;;7.90;4.30;;;;;;;10.83;87.42;100099.23;109130;275;38485;-68
2023/10/08 01:11:46;;;;;;;8.30;4.20;;;;;;;10.81;87.78;100101.75;109111;275;38622;-69
2023/10/08 01:14:32;;;;;;;10.50;4.50;;;;;;;10.81;87.98;100101.22;109209;275;39544;-70
2023/10/08 01:17:15;;;;;;;8.30;4.10;;;;;;;10.82;88.15;100093.88;109198;275;38236;-68
2023/10/08 01:20:10;;;;;;;9.70;4.30;;;;;;;10.85;88.38;100085.18;109152;275;39517;-69
2023/10/08 01:22:53;;;;;;;7.40;4.20;;;;;;;10.83;87.91;100092.27;108971;275;174970;-69
2023/10/08 01:25:38;;;;;;;10.10;4.20;;;;;;;10.81;87.95;100096.54;109106;275;38264;-69
2023/10/08 01:28:18;;;;;;;10.00;3.80;;;;;;;10.80;88.20;100086.27;109075;275;38460;-70
2023/10/08 01:30:55;;;;;;;7.20;3.70;;;;;;;10.80;88.27;100074.93;109166;275;38141;-69
2023/10/08 01:33:38;;;;;;;9.50;4.10;;;;;;;10.82;88.31;100073.27;109123;275;39694;-67
2023/10/08 01:36:12;;;;;;;9.50;4.00;;;;;;;10.81;88.05;100083.42;109109;275;39360;-70
2023/10/08 01:38:51;;;;;;;10.50;4.30;;;;;;;10.79;88.00;100084.23;109127;275;38173;-70
2023/10/08 01:41:30;;;;;;;8.90;4.30;;;;;;;10.77;88.09;100090.44;109106;275;39858;-68
2023/10/08 01:44:08;;;;;;;9.20;4.20;;;;;;;10.75;88.23;100095.77;109088;275;38190;-69
2023/10/08 01:46:49;;;;;;;7.40;3.70;;;;;;;10.76;88.40;100108.46;108949;275;39526;-70
2023/10/08 01:49:32;;;;;;;8.40;4.00;;;;;;;10.76;88.45;100125.01;109084;275;38175;-70
2023/10/08 01:52:18;;;;;;;10.60;4.30;;;;;;;10.75;88.35;100130.84;109155;275;38273;-70
2023/10/08 01:54:56;;;;;;;9.60;4.40;;;;;;;10.75;88.57;100131.85;109161;275;38531;-70
2023/10/08 01:57:36;;;;;;;7.30;3.50;;;;;;;10.77;88.76;100128.27;109191;275;39639;-68
2023/10/08 02:00:19;;;;;;;10.40;4.30;;;;;;;10.78;88.74;100122.48;109168;275;39539;-68
2023/10/08 02:02:59;;;;;;;8.70;4.00;;;;;;;10.77;88.52;100124.61;109126;275;38210;-67
2023/10/08 02:05:41;;;;;;;7.80;3.90;;;;;;;10.77;88.56;100126.17;109046;275;172259;-69
2023/10/08 02:08:25;;;;;;;7.90;4.30;;;;;;;10.78;88.54;100119.14;109149;275;39669;-67
2023/10/08 02:11:03;;;;;;;10.50;4.90;;;;;;;10.76;88.49;100127.63;108860;275;176471;-68
2023/10/08 02:13:46;;;;;;;10.00;3.90;;;;;;;10.74;88.61;100128.39;109114;275;38253;-68
2023/10/08 02:16:27;;;;;;;11.10;4.70;;;;;;;10.70;88.47;100122.99;108971;275;39611;-68
2023/10/08 02:19:10;;;;;;;8.30;4.40;;;;;;;10.69;88.70;100132.98;109099;275;38722;-68
2023/10/08 02:21:47;;;;;;;10.60;4.20;;;;;;;10.69;88.74;100127.91;109093;275;38885;-68
2023/10/08 02:24:24;;;;;;;9.40;4.60;;;;;;;10.68;88.72;100128.48;109090;275;39573;-68
2023/10/08 02:27:02;;;;;;;8.90;4.60;;;;;;;10.68;88.71;100136.70;109132;275;39592;-69
2023/10/08 02:29:38;;;;;;;7.70;4.50;;;;;;;10.64;88.72;100137.93;109106;275;39548;-70
2023/10/08 02:32:14;;;;;;;9.60;4.60;;;;;;;10.61;88.87;100152.17;109157;275;38769;-69
2023/10/08 02:34:58;;;;;;;10.70;4.80;;;;;;;10.60;88.87;100166.15;109124;275;38359;-69
2023/10/08 02:37:39;;;;;;;8.70;4.30;;;;;;;10.61;89.12;100170.65;109184;275;39509;-69
2023/10/08 02:40:25;;;;;;;7.60;5.00;;;;;;;10.60;89.22;100169.99;109148;275;38374;-70
2023/10/08 02:43:00;;;;;;;8.40;4.70;;;;;;;10.59;89.29;100177.19;109147;275;39747;-70
2023/10/08 02:45:38;;;;;;;10.00;5.00;;;;;;;10.60;89.28;100186.40;109207;275;38705;-69
2023/10/08 02:48:16;;;;;;;9.00;4.40;;;;;;;10.62;89.59;100185.27;108566;275;585298;-67
2023/10/08 02:50:53;;;;;;;10.70;4.40;;;;;;;10.63;89.63;100184.34;109153;275;38825;-69
2023/10/08 02:53:29;;;;;;;10.20;4.80;;;;;;;10.67;89.65;100187.17;109116;275;38706;-69
2023/10/08 02:56:12;;;;;;;11.50;5.10;;;;;;;10.64;89.52;100195.67;109089;275;38471;-69
2023/10/08 02:58:47;;;;;;;9.80;4.30;;;;;;;10.62;89.38;100188.25;109083;275;38425;-70
2023/10/08 03:01:21;;;;;;;9.10;4.50;;;;;;;10.60;89.32;100190.94;109075;275;38592;-69
2023/10/08 03:04:04;;;;;;;8.90;4.00;;;;;;;10.59;89.27;100201.80;109097;275;38339;-70
2023/10/08 03:06:38;;;;;;;7.90;4.00;;;;;;;10.59;89.21;100192.72;109128;275;38507;-71
2023/10/08 03:09:13;;;;;;;8.40;4.40;;;;;;;10.57;89.03;100192.26;109069;275;38457;-72
2023/10/08 03:11:50;;;;;;;6.70;3.80;;;;;;;10.52;88.59;100188.30;108469;275;915211;-67
2023/10/08 03:14:41;;;;;;;10.10;4.40;;;;;;;10.46;88.74;100197.09;109115;275;38793;-69
2023/10/08 03:17:19;;;;;;;9.10;3.50;;;;;;;10.42;88.58;100206.14;109158;275;39643;-69
2023/10/08 03:20:00;;;;;;;5.80;3.30;;;;;;;10.39;88.29;100215.33;109174;275;38495;-69
2023/10/08 03:22:35;;;;;;;8.40;3.40;;;;;;;10.37;87.83;100207.89;109143;275;38491;-69
2023/10/08 03:25:16;;;;;;;6.30;2.40;;;;;;;10.35;87.66;100207.45;109072;275;39966;-71
2023/10/08 03:27:54;;;;;;;4.90;2.30;;;;;;;10.32;87.45;100208.11;109153;275;39675;-71
2023/10/08 03:30:40;;;;;;;5.40;2.80;;;;;;;10.26;86.91;100219.66;109217;275;38412;-69
2023/10/08 03:33:23;;;;;;;5.80;2.50;;;;;;;10.21;86.85;100222.80;109144;275;38853;-67
2023/10/08 03:36:09;;;;;;;6.20;2.40;;;;;;;10.19;86.63;100234.91;109122;275;39613;-69
2023/10/08 03:39:14;;;;;;;7.00;2.90;;;;;;;10.16;86.58;100239.91;108977;272;38278;-68
2023/10/08 03:42:07;;;;;;;5.60;2.50;;;;;;;10.09;86.09;100239.67;108954;275;189069;-69
2023/10/08 03:44:53;;;;;;;7.00;2.20;;;;;;;9.99;85.92;100240.18;109102;275;38523;-71
2023/10/08 03:47:32;;;;;;;6.40;2.00;;;;;;;9.94;85.29;100249.10;109132;275;38313;-67
2023/10/08 03:50:09;;;;;;;5.00;2.40;;;;;;;9.90;84.96;100252.05;109067;275;39478;-68
2023/10/08 03:52:50;;;;;;;3.50;1.80;;;;;;;9.88;84.88;100259.23;109137;275;39753;-68
2023/10/08 03:55:35;;;;;;;4.90;2.00;;;;;;;9.84;84.64;100263.58;108965;275;38286;-68
2023/10/08 03:58:19;;;;;;;3.90;1.90;;;;;;;9.79;84.38;100271.23;109177;275;38824;-70
2023/10/08 04:01:08;;;;;;;7.20;1.80;;;;;;;9.72;83.98;100277.61;109146;275;38153;-70
2023/10/08 04:03:58;;;;;;;;;;;;;;;9.65;83.74;100280.13;109027;275;38302;-69
2023/10/08 04:06:37;;;;;;;2.80;1.40;;;;;;;9.56;83.07;100282.70;109184;275;38746;-67
2023/10/08 04:09:25;;;;;;;3.90;1.60;;;;;;;9.53;82.95;100287.33;109184;275;38174;-67
2023/10/08 04:12:10;;;;;;;3.80;1.40;;;;;;;9.48;82.05;100293.79;109166;275;38812;-69
2023/10/08 04:14:45;;;;;;;2.90;1.70;;;;;;;9.41;81.88;100295.78;109021;275;174969;-70
2023/10/08 04:17:24;;;;;;;2.00;1.00;;;;;;;9.33;81.70;100295.69;109139;275;39452;-67
2023/10/08 04:20:30;;;;;;;2.40;1.40;;;;;;;9.26;81.21;100305.30;109126;275;39743;-67
2023/10/08 04:23:04;;;;;;;4.50;1.30;;;;;;;9.19;80.55;100314.43;109069;275;38173;-68
2023/10/08 04:25:46;;;;;;;2.80;1.30;;;;;;;9.12;79.95;100321.12;109120;275;38766;-68
2023/10/08 04:28:31;;;;;;;3.00;1.10;;;;;;;9.05;79.78;100329.17;109086;275;38019;-68
2023/10/08 04:31:24;;;;;;;3.10;1.30;;;;;;;8.95;79.13;100328.09;109073;275;39935;-69
2023/10/08 04:34:09;;;;;;;3.50;1.20;;;;;;;8.82;78.86;100333.55;109047;275;39095;-69
2023/10/08 04:36:54;;;;;;;2.10;1.10;;;;;;;8.71;78.53;100338.41;109121;275;38476;-68
2023/10/08 04:39:38;;;;;;;1.90;1.10;;;;;;;8.64;78.43;100341.60;109137;275;40026;-67
2023/10/08 04:42:25;;;;;;;2.00;1.40;;;;;;;8.59;78.57;100342.29;109154;275;39165;-69
2023/10/08 04:45:04;;;;;;;1.80;1.40;;;;;;;8.55;78.70;100340.48;109102;275;38252;-70
2023/10/08 04:47:42;;;;;;;2.30;1.00;;;;;;;8.51;78.59;100348.40;109197;275;38680;-69
2023/10/08 04:50:20;;;;;;;3.00;1.30;;;;;;;8.47;78.23;100356.55;109200;275;39635;-69
2023/10/08 04:53:07;;;;;;;2.10;1.10;;;;;;;8.38;77.74;100355.74;109105;275;39669;-67
2023/10/08 04:55:48;;;;;;;1.50;0.90;;;;;;;8.30;77.65;100363.25;109122;275;38170;-68
2023/10/08 04:58:33;;;;;;;2.60;1.00;;;;;;;8.27;77.82;100369.77;109101;275;38154;-67
2023/10/08 05:01:20;;;;;;;1.40;0.90;;;;;;;8.25;77.95;100377.30;109119;275;38453;-68
2023/10/08 05:04:26;;;;;;;1.70;1.00;;;;;;;8.21;77.79;100377.23;109110;275;38138;-67
2023/10/08 05:12:47;;;;;;;2.00;1.10;;;;;;;7.96;77.45;100385.93;108832;275;189003;-69
2023/10/08 05:15:37;;;;;;;2.50;0.90;;;;;;;7.94;77.65;100385.64;109086;275;38238;-67
2023/10/08 05:18:23;;;;;;;1.80;1.40;;;;;;;7.92;77.66;100392.79;109079;275;38147;-69
2023/10/08 05:21:14;;;;;;;2.30;1.00;;;;;;;7.92;77.72;100398.17;109098;275;38572;-69
2023/10/08 05:26:59;;;;;;;1.90;0.80;;;;;;;7.90;77.64;100405.71;109107;275;38178;-70
2023/10/08 05:30:11;;;;;;;2.30;1.20;;;;;;;7.89;77.77;100410.27;108539;275;905224;-71
2023/10/08 05:35:50;;;;;;;2.40;1.00;;;;;;;7.93;78.34;100420.04;109134;275;38619;-67
2023/10/08 05:39:00;;;;;;;2.80;1.20;;;;;;;7.98;77.70;100428.09;109171;275;38454;-68
2023/10/08 05:41:51;;;;;;;2.60;1.10;;;;;;;8.02;77.95;100433.36;109112;275;38189;-68
2023/10/08 05:44:39;;;;;;;2.90;1.30;;;;;;;8.43;78.57;100437.11;109123;275;38643;-67
2023/10/08 05:47:38;;;;;;;3.40;1.20;;;;;;;9.12;78.39;100442.06;109100;275;39633;-68
2023/10/08 05:50:39;;;;;;;1.10;0.80;;;;;;;9.78;77.55;100446.89;108983;275;188758;-68
2023/10/08 05:53:43;;;;;;;2.10;1.00;;;;;;;10.09;75.34;100454.73;109132;275;39675;-69
2023/10/08 05:56:40;;;;;;;1.70;0.80;;;;;;;9.97;73.95;100462.83;109119;275;38228;-69
2023/10/08 05:59:27;;;;;;;2.20;0.90;;;;;;;9.78;73.30;100477.02;109072;275;39762;-69
2023/10/08 06:02:27;;;;;;;1.30;0.80;;;;;;;9.64;72.99;100482.89;109121;275;38215;-71
2023/10/08 06:05:20;;;;;;;1.40;0.90;;;;;;;9.54;72.78;100495.05;109139;275;38244;-72
2023/10/08 06:08:11;;;;;;;1.80;0.90;;;;;;;9.50;73.02;100504.43;108994;275;172303;-71
2023/10/08 06:10:56;;;;;;;2.90;1.00;;;;;;;9.56;72.68;100508.94;109086;275;38487;-69
2023/10/08 06:16:41;;;;;;;1.80;0.90;;;;;;;9.59;72.28;100523.48;109162;275;39065;-70
2023/10/08 06:19:18;;;;;;;2.50;0.80;;;;;;;9.57;71.62;100524.58;109215;275;38803;-70
2023/10/08 06:21:58;;;;;;;1.70;0.90;;;;;;;9.56;71.30;100528.80;109194;275;38702;-68
2023/10/08 06:24:41;;;;;;;2.20;0.80;;;;;;;9.50;69.93;100537.50;109164;275;38298;-67
2023/10/08 06:27:25;;;;;;;1.60;0.90;;;;;;;9.44;70.51;100541.17;109165;275;39403;-70
2023/10/08 06:30:16;;;;;;;2.60;0.90;;;;;;;9.45;69.99;100549.16;109162;275;38317;-70
2023/10/08 06:32:53;;;;;;;1.30;0.70;;;;;;;9.47;70.14;100556.40;109131;275;38173;-69
2023/10/08 06:35:36;;;;;;;1.70;0.80;;;;;;;9.43;69.65;100563.66;109125;275;38195;-69
2023/10/08 06:38:18;;;;;;;3.60;0.70;;;;;;;9.38;69.39;100564.34;109090;275;38542;-68
2023/10/08 06:41:08;;;;;;;2.90;0.90;;;;;;;9.38;69.59;100566.80;109084;275;38539;-68
2023/10/08 06:44:02;;;;;;;1.50;0.80;;;;;;;9.35;68.44;100569.30;109051;275;38243;-68
2023/10/08 06:46:41;;;;;;;1.70;0.90;;;;;;;9.33;67.81;100577.20;109109;275;38226;-70
2023/10/08 06:49:18;;;;;;;1.60;1.10;;;;;;;9.33;68.74;100582.25;109094;275;38948;-71
2023/10/08 06:51:53;;;;;;;1.10;0.80;;;;;;;9.38;67.92;100587.69;109154;275;38238;-67
2023/10/08 06:54:31;;;;;;;1.80;0.80;;;;;;;9.42;68.25;100595.23;109108;275;39318;-69
2023/10/08 06:57:14;;;;;;;2.80;0.90;;;;;;;9.48;67.03;100599.23;109076;275;38225;-68
2023/10/08 06:59:56;;;;;;;1.90;0.80;;;;;;;9.51;66.77;100600.52;109179;275;38230;-69
2023/10/08 07:02:40;;;;;;;2.10;0.80;;;;;;;9.56;65.61;100605.95;109162;275;38243;-70
2023/10/08 07:05:16;;;;;;;1.50;0.70;;;;;;;9.53;65.12;100609.34;109209;275;38247;-70
2023/10/08 07:07:53;;;;;;;3.30;1.10;;;;;;;9.54;64.86;100612.95;109178;275;38903;-68
2023/10/08 07:10:30;;;;;;;2.70;1.10;;;;;;;9.55;65.35;100626.16;109141;275;38343;-68
2023/10/08 07:13:07;;;;;;;2.30;1.00;;;;;;;9.61;64.76;100624.25;109207;275;38285;-69
2023/10/08 07:15:45;;;;;;;5.60;1.50;;;;;;;9.60;64.03;100623.77;109173;275;38181;-70
2023/10/08 07:18:24;;;;;;;1.30;0.80;;;;;;;9.62;62.86;100627.38;109136;275;38176;-70
2023/10/08 07:21:00;;;;;;;1.80;0.70;;;;;;;9.62;63.20;100631.56;109142;275;38722;-70
2023/10/08 07:23:34;;;;;;;2.60;0.80;;;;;;;9.66;64.04;100635.95;109132;275;40451;-69
2023/10/08 07:26:11;;;;;;;1.50;0.80;;;;;;;9.74;61.70;100635.87;109110;275;39082;-70
2023/10/08 07:28:46;;;;;;;2.30;0.60;;;;;;;9.79;62.19;100638.35;109095;275;39374;-70
2023/10/08 07:31:22;;;;;;;2.50;0.80;;;;;;;9.91;61.55;100642.33;108950;275;38763;-70
2023/10/08 07:34:15;;;;;;;1.60;0.90;;;;;;;10.09;61.29;100647.18;109086;275;38319;-70
2023/10/08 07:36:54;;;;;;;2.70;0.90;;;;;;;10.28;62.10;100652.16;109145;275;39007;-70
2023/10/08 07:39:33;;;;;;;1.20;0.90;;;;;;;10.49;61.24;100662.64;108965;275;172589;-70
2023/10/08 07:42:10;;;;;;;1.80;0.90;;;;;;;10.67;60.14;100665.56;108992;275;38189;-67
2023/10/08 07:44:50;;;;;;;1.90;0.70;;;;;;;10.85;59.62;100666.15;109125;275;39048;-67
2023/10/08 07:47:27;;;;;;;1.10;0.70;;;;;;;11.16;59.67;100671.02;109199;275;38829;-70
2023/10/08 07:50:11;;;;;;;2.50;0.80;;;;;;;11.73;58.63;100669.44;109158;275;39983;-70
2023/10/08 07:52:48;;;;;;;16.30;5.00;;;;;;;12.54;57.82;100675.52;109235;275;38361;-69
2023/10/08 07:55:32;;;;;;;9.90;3.30;;;;;;;13.25;57.25;100667.95;109168;275;38207;-68
2023/10/08 07:58:14;;;;;;;3.60;1.70;;;;;;;14.23;56.01;100661.32;109147;275;38708;-68
2023/10/08 08:00:55;;;;;;;3.50;1.60;;;;;;;15.17;53.24;100665.36;109174;275;38543;-70
2023/10/08 08:03:29;;;;;;;2.60;1.00;;;;;;;15.83;50.45;100667.15;109154;275;38262;-72
2023/10/08 08:06:09;;;;;;;3.30;1.20;;;;;;;16.15;48.71;100672.20;109172;275;39617;-69
2023/10/08 08:08:44;;;;;;;1.50;0.80;;;;;;;16.08;44.89;100668.20;109128;275;38376;-68
2023/10/08 08:11:26;;;;;;;1.90;1.00;;;;;;;15.73;45.96;100673.45;109107;275;38302;-70
2023/10/08 08:14:07;;;;;;;1.10;0.90;;;;;;;15.52;47.08;100679.02;109129;275;39236;-70
2023/10/08 08:16:42;;;;;;;2.20;0.90;;;;;;;15.31;46.85;100685.73;109143;275;39223;-69
2023/10/08 08:19:24;;;;;;;1.90;0.80;;;;;;;15.16;46.27;100686.02;109101;275;38741;-69
2023/10/08 08:22:02;;;;;;;1.40;0.60;;;;;;;14.98;46.52;100684.11;109080;275;39021;-73
2023/10/08 08:24:37;;;;;;;2.00;0.90;;;;;;;14.80;46.09;100697.83;109101;275;38801;-71
2023/10/08 08:27:31;;;;;;;1.80;1.10;;;;;;;14.45;45.33;100703.07;109124;275;38235;-70
2023/10/08 08:30:15;;;;;;;1.50;0.90;;;;;;;14.02;46.45;100709.64;109120;275;38219;-72
2023/10/08 08:32:50;;;;;;;1.10;0.70;;;;;;;13.86;47.90;100699.71;109112;275;38307;-68
2023/10/08 08:35:26;;;;;;;1.30;0.50;;;;;;;13.78;48.12;100704.12;109153;275;39921;-69
2023/10/08 08:38:05;;;;;;;1.70;0.80;;;;;;;13.73;48.28;100712.08;109246;275;38239;-71
2023/10/08 08:40:48;;;;;;;1.20;0.70;;;;;;;13.68;48.07;100708.63;109209;275;38197;-70
2023/10/08 08:43:25;;;;;;;1.10;0.60;;;;;;;13.59;47.19;100716.36;109148;275;38196;-71
2023/10/08 08:45:59;;;;;;;1.20;0.80;;;;;;;13.48;47.73;100716.19;108919;275;175145;-68
2023/10/08 08:48:35;;;;;;;1.50;0.80;;;;;;;13.49;48.32;100717.91;109167;275;38204;-72
2023/10/08 08:51:15;;;;;;;1.80;1.00;;;;;;;13.37;46.27;100716.66;109159;275;38215;-70
2023/10/08 08:53:52;;;;;;;1.30;0.80;;;;;;;13.23;46.78;100719.88;108957;275;38373;-69
2023/10/08 08:56:27;;;;;;;2.20;0.80;;;;;;;13.21;47.43;100725.59;109152;275;39041;-71
2023/10/08 08:59:04;;;;;;;2.00;0.80;;;;;;;13.21;47.14;100727.32;109159;275;38451;-71
2023/10/08 09:01:41;;;;;;;2.10;0.70;;;;;;;13.15;45.87;100733.70;109174;275;39312;-72
2023/10/08 09:04:17;;;;;;;2.40;0.70;;;;;;;13.00;46.28;100737.85;109130;275;38347;-71
2023/10/08 09:06:59;;;;;;;2.30;0.90;;;;;;;12.99;46.56;100741.23;109200;275;38435;-72
2023/10/08 09:09:44;;;;;;;2.20;1.20;;;;;;;13.08;47.43;100743.30;109167;275;38252;-69
2023/10/08 09:12:21;;;;;;;1.80;0.90;;;;;;;13.14;46.24;100744.41;109159;275;38393;-69
2023/10/08 09:15:09;;;;;;;1.60;0.70;;;;;;;13.18;48.16;100742.16;109078;275;38701;-69
2023/10/08 09:17:47;;;;;;;3.40;1.10;;;;;;;13.44;46.76;100745.09;109217;275;38857;-68
2023/10/08 09:20:24;;;;;;;1.80;0.80;;;;;;;13.68;47.47;100741.55;109206;275;38141;-70
2023/10/08 09:23:17;;;;;;;;;;;;;;;14.16;47.97;100737.94;109154;275;38701;-71
2023/10/08 09:25:59;;;;;;;2.70;1.10;;;;;;;14.76;46.67;100744.38;109025;275;38649;-71
2023/10/08 09:28:34;;;;;;;0.80;0.60;;;;;;;15.46;45.78;100742.10;109175;271;40141;-72
2023/10/08 09:31:17;;;;;;;1.20;0.70;;;;;;;16.12;43.11;100740.09;109145;275;38811;-69
2023/10/08 09:33:59;;;;;;;1.60;0.70;;;;;;;16.83;43.11;100746.67;109010;275;39318;-68
2023/10/08 09:36:34;;;;;;;2.60;0.70;;;;;;;17.51;40.62;100750.59;109139;275;39955;-71
2023/10/08 09:39:19;;;;;;;2.10;1.50;;;;;;;18.01;39.10;100747.86;109101;275;39029;-71
2023/10/08 09:41:55;;;;;;;2.00;1.50;;;;;;;18.33;38.16;100746.40;109052;275;38593;-71
2023/10/08 09:44:30;;;;;;;1.50;1.30;;;;;;;18.82;38.62;100748.52;109124;275;38394;-73
2023/10/08 09:47:08;;;;;;;3.50;1.10;;;;;;;19.18;37.62;100754.05;109126;275;38129;-70
2023/10/08 09:49:48;;;;;;;1.50;1.00;;;;;;;19.32;36.63;100751.64;109095;275;40059;-68
2023/10/08 09:52:28;;;;;;;2.10;0.60;;;;;;;19.17;36.84;100760.10;109181;275;38493;-69
2023/10/08 09:55:10;;;;;;;1.10;0.70;;;;;;;18.86;36.61;100764.47;109113;275;38148;-69
2023/10/08 09:57:50;;;;;;;1.10;0.70;;;;;;;18.37;36.71;100760.92;109319;275;39387;-71
2023/10/08 10:00:31;;;;;;;1.20;0.90;;;;;;;17.93;36.81;100760.73;109120;275;38319;-70
2023/10/08 10:03:07;;;;;;;0.80;0.70;;;;;;;17.51;37.43;100760.64;109155;275;38145;-69
2023/10/08 10:05:44;;;;;;;2.20;0.80;;;;;;;17.11;37.81;100769.58;109147;275;39019;-70
2023/10/08 10:08:25;;;;;;;1.30;0.80;;;;;;;16.62;36.25;100773.92;109160;275;38205;-71
2023/10/08 10:11:08;;;;;;;1.50;0.90;;;;;;;16.08;37.29;100777.85;109191;275;38779;-70
2023/10/08 10:13:52;;;;;;;2.20;0.70;;;;;;;15.63;38.37;100778.47;109149;275;38158;-70
2023/10/08 10:16:29;;;;;;;3.10;1.20;;;;;;;15.27;38.10;100787.88;109142;275;38169;-69
2023/10/08 10:19:04;;;;;;;;;;;;;;;14.88;38.36;100786.50;109120;275;38354;-67
2023/10/08 10:21:41;;;;;;;1.60;0.70;;;;;;;14.60;38.60;100789.60;109104;275;38843;-70
2023/10/08 10:24:34;;;;;;;3.00;0.80;;;;;;;14.38;39.14;100782.56;109089;275;39888;-70
2023/10/08 10:27:18;;;;;;;1.10;0.60;;;;;;;14.14;39.10;100782.63;109071;275;38747;-71
2023/10/08 10:30:09;;;;;;;0.80;0.70;;;;;;;14.00;40.11;100787.13;109127;275;40094;-71
2023/10/08 10:32:57;;;;;;;1.10;0.70;;;;;;;13.92;40.45;100784.50;109113;275;38738;-68
2023/10/08 10:35:32;;;;;;;1.00;0.70;;;;;;;13.86;41.11;100781.45;109171;275;38121;-70
2023/10/08 10:38:13;;;;;;;1.70;0.70;;;;;;;13.85;40.88;100781.66;109074;275;39791;-69
2023/10/08 10:40:56;;;;;;;2.10;0.80;;;;;;;13.76;39.88;100786.62;109127;275;38608;-70
2023/10/08 10:43:33;;;;;;;1.70;0.80;;;;;;;13.62;40.34;100782.68;109150;275;38379;-70
2023/10/08 10:46:29;;;;;;;;;;;;;;;13.60;40.75;100784.19;109177;275;38298;-70
2023/10/08 10:49:17;;;;;;;2.10;1.60;;;;;;;13.51;41.01;100795.81;108795;275;38709;-73
2023/10/08 10:51:57;;;;;;;1.50;0.90;;;;;;;13.51;41.19;100786.70;109179;275;39821;-74
2023/10/08 10:54:39;;;;;;;1.90;0.70;;;;;;;13.48;41.26;100794.71;109125;275;38175;-75
2023/10/08 10:57:18;;;;;;;1.70;0.60;;;;;;;13.44;41.07;100788.18;109149;275;38255;-71
2023/10/08 10:59:54;;;;;;;1.40;0.70;;;;;;;13.37;40.90;100787.47;109146;275;39214;-70
2023/10/08 11:02:59;;;;;;;3.00;0.80;;;;;;;13.33;40.97;100790.61;109153;275;38272;-70
2023/10/08 11:06:22;;;;;;;0.90;0.50;;;;;;;13.28;40.94;100793.96;109116;275;38339;-68
2023/10/08 11:09:17;;;;;;;1.20;0.60;;;;;;;13.24;40.28;100795.91;109121;275;39095;-68
2023/10/08 11:11:54;;;;;;;1.30;0.70;;;;;;;13.17;40.94;100800.19;108989;275;37662;-68
2023/10/08 11:14:33;;;;;;;1.70;0.70;;;;;;;13.18;39.68;100804.20;108998;275;188325;-68
2023/10/08 11:17:19;;;;;;;1.60;0.80;;;;;;;13.10;38.88;100807.84;109123;275;38246;-68
2023/10/08 11:20:06;;;;;;;1.70;0.50;;;;;;;12.92;36.77;100803.51;109139;275;38737;-70
2023/10/08 11:22:47;;;;;;;1.10;0.70;;;;;;;12.75;37.91;100809.25;109140;275;38464;-71
2023/10/08 11:25:30;;;;;;;3.40;0.40;;;;;;;12.68;37.77;100809.36;109112;275;38345;-70
2023/10/08 11:28:11;;;;;;;3.10;0.70;;;;;;;12.62;38.56;100812.58;109125;275;39439;-68
2023/10/08 11:30:53;;;;;;;0.80;0.50;;;;;;;12.62;39.10;100812.05;109152;275;38381;-70
2023/10/08 11:33:28;;;;;;;3.10;0.70;;;;;;;12.64;39.59;100817.41;109201;275;38218;-70
2023/10/08 11:36:13;;;;;;;1.20;0.50;;;;;;;12.68;39.73;100819.20;109155;275;39907;-71
2023/10/08 11:38:53;;;;;;;1.60;0.50;;;;;;;12.67;38.89;100812.55;109139;275;39905;-71
2023/10/08 11:41:29;;;;;;;1.90;0.60;;;;;;;12.67;39.61;100809.06;109184;275;38243;-70
2023/10/08 11:44:13;;;;;;;0.60;0.50;;;;;;;12.72;40.09;100811.65;109126;275;38577;-70
2023/10/08 11:46:51;;;;;;;5.40;0.50;;;;;;;12.77;39.86;100806.54;109139;275;38362;-68
2023/10/08 11:49:25;;;;;;;1.90;1.00;;;;;;;12.78;39.79;100808.98;109108;275;38204;-68
2023/10/08 11:52:04;;;;;;;5.10;0.80;;;;;;;12.80;39.19;100808.00;109127;275;39508;-71
2023/10/08 11:54:42;;;;;;;1.60;0.60;;;;;;;12.81;39.11;100813.59;109057;275;38432;-71
2023/10/08 11:57:21;;;;;;;1.70;0.70;;;;;;;12.83;39.42;100815.94;109104;275;38477;-70
2023/10/08 11:59:57;;;;;;;2.00;0.60;;;;;;;12.83;39.32;100822.59;109130;275;38178;-71
2023/10/08 12:02:34;;;;;;;1.90;0.80;;;;;;;12.83;39.03;100826.43;109092;275;38387;-70
2023/10/08 12:05:18;;;;;;;1.00;0.60;;;;;;;12.75;37.46;100828.71;109100;275;38599;-70
2023/10/08 12:07:59;;;;;;;1.80;0.60;;;;;;;12.61;37.40;100834.50;108961;275;38288;-70
2023/10/08 12:10:37;;;;;;;1.10;0.70;;;;;;;12.48;37.34;100829.91;109108;275;38248;-69
2023/10/08 12:13:16;;;;;;;1.20;0.80;;;;;;;12.42;37.06;100828.77;109069;275;39976;-69
2023/10/08 12:16:05;;;;;;;5.10;0.90;;;;;;;12.33;35.16;100818.94;109083;275;38205;-70
2023/10/08 12:18:45;;;;;;;2.30;0.90;;;;;;;12.21;35.48;100824.11;109175;275;38504;-70
2023/10/08 12:21:24;;;;;;;3.60;0.80;;;;;;;12.20;36.22;100824.17;109195;275;38366;-69
2023/10/08 12:24:05;;;;;;;1.20;1.10;;;;;;;12.20;36.08;100826.61;109135;275;38257;-71
2023/10/08 12:26:45;;;;;;;1.20;0.70;;;;;;;12.22;36.72;100826.91;109147;275;37983;-71
2023/10/08 12:29:21;;;;;;;2.80;0.80;;;;;;;12.24;37.48;100830.15;109127;275;38421;-71
2023/10/08 12:32:03;;;;;;;0.80;0.50;;;;;;;12.27;37.66;100826.69;109193;275;38133;-71
2023/10/08 12:34:42;;;;;;;1.10;0.60;;;;;;;12.27;37.20;100840.17;109125;275;38313;-71
2023/10/08 12:37:17;;;;;;;1.20;0.50;;;;;;;12.25;36.99;100837.27;109137;275;39009;-69
2023/10/08 12:39:59;;;;;;;1.50;0.80;;;;;;;12.24;37.39;100827.34;109137;275;38775;-68
2023/10/08 12:42:44;;;;;;;1.20;0.60;;;;;;;12.24;36.99;100824.36;109109;275;38545;-68
2023/10/08 12:45:24;;;;;;;0.70;0.60;;;;;;;12.22;36.94;100831.27;109122;275;39743;-68
2023/10/08 12:48:03;;;;;;;2.80;0.70;;;;;;;12.21;37.73;100836.38;109128;275;39169;-71
2023/10/08 12:50:43;;;;;;;3.20;2.60;;;;;;;12.20;37.72;100846.92;109155;275;38581;-70